sensor_id;sensor_type;location;lat;lon;timestamp;noise_LAeq;noise_LA_min;noise_LA_max;noise_LA01;noise_LA95
65079;Laerm;52655;52.218;5.964;2023-06-22T00:01:58;32.9;29.2;46.9;;
65079;Laerm;52655;52.218;5.964;2023-06-22T00:03:58;34.7;29.5;52.4;;
65079;Laerm;52655;52.218;5.964;2023-06-22T00:05:58;31.2;29.0;38.8;;
65079;Laerm;52655;52.218;5.964;2023-06-22T00:08:01;31.1;29.3;37.4;;
65079;Laerm;52655;52.218;5.964;2023-06-22T00:09:58;31.8;29.6;37.3;;
65079;Laerm;52655;52.218;5.964;2023-06-22T00:13:58;31.6;29.6;39.6;;
65079;Laerm;52655;52.218;5.964;2023-06-22T00:15:58;30.9;29.3;35.3;;
65079;Laerm;52655;52.218;5.964;2023-06-22T00:17:58;32.0;29.7;37.8;;
65079;Laerm;52655;52.218;5.964;2023-06-22T00:19:58;30.6;29.1;34.7;;
65079;Laerm;52655;52.218;5.964;2023-06-22T00:21:58;31.1;28.8;36.0;;
65079;Laerm;52655;52.218;5.964;2023-06-22T00:23:58;35.6;29.2;52.9;;
65079;Laerm;52655;52.218;5.964;2023-06-22T00:25:58;31.1;29.0;42.7;;
65079;Laerm;52655;52.218;5.964;2023-06-22T00:27:58;31.1;29.3;35.4;;
65079;Laerm;52655;52.218;5.964;2023-06-22T00:29:59;31.0;29.9;33.9;;
65079;Laerm;52655;52.218;5.964;2023-06-22T00:31:58;31.5;29.3;42.0;;
65079;Laerm;52655;52.218;5.964;2023-06-22T00:33:59;34.8;29.4;50.4;;
65079;Laerm;52655;52.218;5.964;2023-06-22T00:36:43;31.0;29.2;35.4;;
65079;Laerm;52655;52.218;5.964;2023-06-22T00:38:22;31.4;29.0;38.2;;
65079;Laerm;52655;52.218;5.964;2023-06-22T00:40:01;30.9;29.1;38.5;;
65079;Laerm;52655;52.218;5.964;2023-06-22T00:41:59;30.6;29.0;34.8;;
65079;Laerm;52655;52.218;5.964;2023-06-22T00:43:59;34.9;29.1;52.0;;
65079;Laerm;52655;52.218;5.964;2023-06-22T00:45:59;30.9;29.5;37.1;;
65079;Laerm;52655;52.218;5.964;2023-06-22T00:48:00;30.9;29.1;34.1;;
65079;Laerm;52655;52.218;5.964;2023-06-22T00:49:59;31.2;29.4;42.7;;
65079;Laerm;52655;52.218;5.964;2023-06-22T00:51:59;34.6;29.4;50.2;;
65079;Laerm;52655;52.218;5.964;2023-06-22T00:53:59;31.9;29.6;44.4;;
65079;Laerm;52655;52.218;5.964;2023-06-22T00:55:59;31.2;29.1;41.3;;
65079;Laerm;52655;52.218;5.964;2023-06-22T00:57:59;30.4;28.9;34.4;;
65079;Laerm;52655;52.218;5.964;2023-06-22T00:59:59;36.4;29.5;52.6;;
65079;Laerm;52655;52.218;5.964;2023-06-22T01:01:59;31.0;29.3;35.0;;
65079;Laerm;52655;52.218;5.964;2023-06-22T01:03:59;31.0;29.6;33.4;;
65079;Laerm;52655;52.218;5.964;2023-06-22T01:06:08;34.2;30.0;50.2;;
65079;Laerm;52655;52.218;5.964;2023-06-22T01:08:03;32.0;29.7;39.5;;
65079;Laerm;52655;52.218;5.964;2023-06-22T01:10:02;33.9;29.4;46.9;;
65079;Laerm;52655;52.218;5.964;2023-06-22T01:12:01;33.6;29.6;47.5;;
65079;Laerm;52655;52.218;5.964;2023-06-22T01:14:01;30.5;29.3;33.5;;
65079;Laerm;52655;52.218;5.964;2023-06-22T01:16:01;30.9;28.9;34.4;;
65079;Laerm;52655;52.218;5.964;2023-06-22T01:18:00;31.5;29.5;44.2;;
65079;Laerm;52655;52.218;5.964;2023-06-22T01:20:00;31.6;29.6;35.9;;
65079;Laerm;52655;52.218;5.964;2023-06-22T01:22:00;31.6;29.8;34.5;;
65079;Laerm;52655;52.218;5.964;2023-06-22T01:24:15;31.8;29.5;38.3;;
65079;Laerm;52655;52.218;5.964;2023-06-22T01:26:05;31.1;29.6;34.4;;
65079;Laerm;52655;52.218;5.964;2023-06-22T01:28:32;31.8;29.6;42.4;;
65079;Laerm;52655;52.218;5.964;2023-06-22T01:30:02;32.2;30.1;37.3;;
65079;Laerm;52655;52.218;5.964;2023-06-22T01:32:01;31.6;29.6;35.0;;
65079;Laerm;52655;52.218;5.964;2023-06-22T01:34:01;32.4;30.4;38.5;;
65079;Laerm;52655;52.218;5.964;2023-06-22T01:36:00;31.7;29.5;34.3;;
65079;Laerm;52655;52.218;5.964;2023-06-22T01:38:00;32.1;29.8;36.3;;
65079;Laerm;52655;52.218;5.964;2023-06-22T01:40:01;32.1;29.9;36.4;;
65079;Laerm;52655;52.218;5.964;2023-06-22T01:42:00;31.4;29.5;35.3;;
65079;Laerm;52655;52.218;5.964;2023-06-22T01:44:01;34.0;30.4;48.2;;
65079;Laerm;52655;52.218;5.964;2023-06-22T01:46:01;31.2;29.8;35.9;;
65079;Laerm;52655;52.218;5.964;2023-06-22T01:48:01;31.5;29.7;35.2;;
65079;Laerm;52655;52.218;5.964;2023-06-22T01:50:01;32.8;29.9;42.9;;
65079;Laerm;52655;52.218;5.964;2023-06-22T01:52:01;32.4;30.4;36.3;;
65079;Laerm;52655;52.218;5.964;2023-06-22T01:54:01;31.9;29.5;38.0;;
65079;Laerm;52655;52.218;5.964;2023-06-22T01:56:01;34.1;29.6;46.4;;
65079;Laerm;52655;52.218;5.964;2023-06-22T01:58:01;35.6;29.7;48.0;;
65079;Laerm;52655;52.218;5.964;2023-06-22T02:00:02;34.3;29.1;46.8;;
65079;Laerm;52655;52.218;5.964;2023-06-22T02:02:04;34.1;29.4;48.0;;
65079;Laerm;52655;52.218;5.964;2023-06-22T02:04:02;35.1;29.8;47.1;;
65079;Laerm;52655;52.218;5.964;2023-06-22T02:06:02;55.6;30.8;77.0;;
65079;Laerm;52655;52.218;5.964;2023-06-22T02:08:09;60.5;30.1;76.0;;
65079;Laerm;52655;52.218;5.964;2023-06-22T02:10:02;60.8;30.7;76.0;;
65079;Laerm;52655;52.218;5.964;2023-06-22T02:12:02;61.8;30.6;78.0;;
65079;Laerm;52655;52.218;5.964;2023-06-22T02:14:02;60.9;30.9;75.0;;
65079;Laerm;52655;52.218;5.964;2023-06-22T02:16:01;61.8;31.8;75.0;;
65079;Laerm;52655;52.218;5.964;2023-06-22T02:18:02;59.2;31.7;77.0;;
65079;Laerm;52655;52.218;5.964;2023-06-22T02:20:02;53.2;31.5;71.0;;
65079;Laerm;52655;52.218;5.964;2023-06-22T02:22:02;52.0;32.4;65.0;;
65079;Laerm;52655;52.218;5.964;2023-06-22T02:24:02;57.1;32.6;75.0;;
65079;Laerm;52655;52.218;5.964;2023-06-22T02:26:03;54.7;33.5;75.0;;
65079;Laerm;52655;52.218;5.964;2023-06-22T02:28:02;45.1;33.1;65.0;;
65079;Laerm;52655;52.218;5.964;2023-06-22T02:30:02;48.2;32.1;64.0;;
65079;Laerm;52655;52.218;5.964;2023-06-22T02:32:02;56.0;33.1;74.0;;
65079;Laerm;52655;52.218;5.964;2023-06-22T02:34:02;58.5;32.4;75.0;;
65079;Laerm;52655;52.218;5.964;2023-06-22T02:36:02;50.8;32.1;70.0;;
65079;Laerm;52655;52.218;5.964;2023-06-22T02:38:03;48.8;31.8;61.0;;
65079;Laerm;52655;52.218;5.964;2023-06-22T02:40:02;49.7;31.9;64.0;;
65079;Laerm;52655;52.218;5.964;2023-06-22T02:42:02;49.2;31.6;63.0;;
65079;Laerm;52655;52.218;5.964;2023-06-22T02:44:02;57.6;32.1;75.0;;
65079;Laerm;52655;52.218;5.964;2023-06-22T02:46:02;57.1;31.8;75.0;;
65079;Laerm;52655;52.218;5.964;2023-06-22T02:48:02;54.3;30.8;74.0;;
65079;Laerm;52655;52.218;5.964;2023-06-22T02:50:02;33.9;30.8;42.0;;
65079;Laerm;52655;52.218;5.964;2023-06-22T02:52:02;36.7;31.3;46.1;;
65079;Laerm;52655;52.218;5.964;2023-06-22T02:54:03;37.0;31.7;46.6;;
65079;Laerm;52655;52.218;5.964;2023-06-22T02:56:03;38.2;31.4;50.0;;
65079;Laerm;52655;52.218;5.964;2023-06-22T02:58:03;44.2;31.2;59.0;;
65079;Laerm;52655;52.218;5.964;2023-06-22T03:00:03;36.9;31.8;49.3;;
65079;Laerm;52655;52.218;5.964;2023-06-22T03:02:03;38.0;31.4;52.6;;
65079;Laerm;52655;52.218;5.964;2023-06-22T03:04:03;35.8;31.4;54.7;;
65079;Laerm;52655;52.218;5.964;2023-06-22T03:06:03;38.0;31.6;53.0;;
65079;Laerm;52655;52.218;5.964;2023-06-22T03:08:03;40.0;32.2;54.0;;
65079;Laerm;52655;52.218;5.964;2023-06-22T03:10:03;45.7;31.4;63.0;;
65079;Laerm;52655;52.218;5.964;2023-06-22T03:12:03;36.5;31.0;48.1;;
65079;Laerm;52655;52.218;5.964;2023-06-22T03:14:03;39.3;32.0;54.4;;
65079;Laerm;52655;52.218;5.964;2023-06-22T03:16:03;38.2;31.9;51.8;;
65079;Laerm;52655;52.218;5.964;2023-06-22T03:18:03;42.5;32.0;54.1;;
65079;Laerm;52655;52.218;5.964;2023-06-22T03:20:03;38.9;32.2;53.6;;
65079;Laerm;52655;52.218;5.964;2023-06-22T03:22:04;40.1;31.9;54.1;;
65079;Laerm;52655;52.218;5.964;2023-06-22T03:24:03;39.5;32.4;51.3;;
65079;Laerm;52655;52.218;5.964;2023-06-22T03:26:03;37.2;32.8;43.0;;
65079;Laerm;52655;52.218;5.964;2023-06-22T03:28:04;40.9;33.2;57.5;;
65079;Laerm;52655;52.218;5.964;2023-06-22T03:30:04;39.7;32.6;53.7;;
65079;Laerm;52655;52.218;5.964;2023-06-22T03:32:04;40.5;32.3;54.1;;
65079;Laerm;52655;52.218;5.964;2023-06-22T03:34:04;39.8;32.4;53.6;;
65079;Laerm;52655;52.218;5.964;2023-06-22T03:36:04;38.4;32.5;56.0;;
65079;Laerm;52655;52.218;5.964;2023-06-22T03:38:04;35.5;32.6;47.9;;
65079;Laerm;52655;52.218;5.964;2023-06-22T03:40:04;41.4;32.4;57.8;;
65079;Laerm;52655;52.218;5.964;2023-06-22T03:42:04;37.1;32.1;51.2;;
65079;Laerm;52655;52.218;5.964;2023-06-22T03:44:04;37.7;31.7;59.0;;
65079;Laerm;52655;52.218;5.964;2023-06-22T03:46:04;36.7;31.4;51.8;;
65079;Laerm;52655;52.218;5.964;2023-06-22T03:48:04;39.7;33.0;54.6;;
65079;Laerm;52655;52.218;5.964;2023-06-22T03:50:05;39.3;33.2;54.8;;
65079;Laerm;52655;52.218;5.964;2023-06-22T03:52:04;41.9;33.0;57.8;;
65079;Laerm;52655;52.218;5.964;2023-06-22T03:54:04;40.4;32.5;54.0;;
65079;Laerm;52655;52.218;5.964;2023-06-22T03:56:04;38.8;32.4;55.0;;
65079;Laerm;52655;52.218;5.964;2023-06-22T03:58:04;39.8;33.8;57.4;;
65079;Laerm;52655;52.218;5.964;2023-06-22T04:00:05;44.2;33.1;59.0;;
65079;Laerm;52655;52.218;5.964;2023-06-22T04:02:04;41.9;34.9;61.0;;
65079;Laerm;52655;52.218;5.964;2023-06-22T04:04:05;42.5;34.6;57.8;;
65079;Laerm;52655;52.218;5.964;2023-06-22T04:06:04;40.1;33.5;52.8;;
65079;Laerm;52655;52.218;5.964;2023-06-22T04:08:04;39.2;33.7;52.7;;
65079;Laerm;52655;52.218;5.964;2023-06-22T04:10:05;41.2;34.1;55.0;;
65079;Laerm;52655;52.218;5.964;2023-06-22T04:12:05;40.8;34.5;56.0;;
65079;Laerm;52655;52.218;5.964;2023-06-22T04:14:05;42.8;33.8;56.0;;
65079;Laerm;52655;52.218;5.964;2023-06-22T04:16:05;40.5;35.2;53.5;;
65079;Laerm;52655;52.218;5.964;2023-06-22T04:18:05;38.6;34.6;49.8;;
65079;Laerm;52655;52.218;5.964;2023-06-22T04:20:06;38.0;34.8;44.8;;
65079;Laerm;52655;52.218;5.964;2023-06-22T04:22:05;39.0;34.9;52.9;;
65079;Laerm;52655;52.218;5.964;2023-06-22T04:24:05;39.2;34.9;51.7;;
65079;Laerm;52655;52.218;5.964;2023-06-22T04:26:05;40.8;35.6;53.1;;
65079;Laerm;52655;52.218;5.964;2023-06-22T04:28:05;40.5;35.4;57.6;;
65079;Laerm;52655;52.218;5.964;2023-06-22T04:30:05;40.9;34.9;55.2;;
65079;Laerm;52655;52.218;5.964;2023-06-22T04:32:05;41.3;36.0;55.6;;
65079;Laerm;52655;52.218;5.964;2023-06-22T04:36:05;41.9;36.5;54.5;;
65079;Laerm;52655;52.218;5.964;2023-06-22T04:38:05;41.2;36.8;52.2;;
65079;Laerm;52655;52.218;5.964;2023-06-22T04:40:06;39.3;35.8;51.1;;
65079;Laerm;52655;52.218;5.964;2023-06-22T04:42:05;42.5;35.8;53.7;;
65079;Laerm;52655;52.218;5.964;2023-06-22T04:44:06;41.4;36.5;50.9;;
65079;Laerm;52655;52.218;5.964;2023-06-22T04:46:06;41.6;36.5;53.9;;
65079;Laerm;52655;52.218;5.964;2023-06-22T04:48:06;44.4;37.1;53.4;;
65079;Laerm;52655;52.218;5.964;2023-06-22T04:50:06;43.2;37.8;53.7;;
65079;Laerm;52655;52.218;5.964;2023-06-22T04:52:06;39.3;36.5;49.2;;
65079;Laerm;52655;52.218;5.964;2023-06-22T04:54:06;42.5;35.6;52.8;;
65079;Laerm;52655;52.218;5.964;2023-06-22T04:56:06;42.2;36.5;53.1;;
65079;Laerm;52655;52.218;5.964;2023-06-22T04:58:06;43.3;36.5;52.3;;
65079;Laerm;52655;52.218;5.964;2023-06-22T05:00:06;41.9;35.8;58.1;;
65079;Laerm;52655;52.218;5.964;2023-06-22T05:02:06;46.8;36.8;67.0;;
65079;Laerm;52655;52.218;5.964;2023-06-22T05:04:06;44.7;36.6;58.1;;
65079;Laerm;52655;52.218;5.964;2023-06-22T05:06:06;41.9;35.3;58.8;;
65079;Laerm;52655;52.218;5.964;2023-06-22T05:08:06;43.1;36.4;52.9;;
65079;Laerm;52655;52.218;5.964;2023-06-22T05:10:06;42.6;36.2;52.5;;
65079;Laerm;52655;52.218;5.964;2023-06-22T05:12:06;41.9;36.8;56.0;;
65079;Laerm;52655;52.218;5.964;2023-06-22T05:14:06;44.5;37.2;54.7;;
65079;Laerm;52655;52.218;5.964;2023-06-22T05:16:06;41.1;36.2;52.0;;
65079;Laerm;52655;52.218;5.964;2023-06-22T05:18:07;44.0;36.1;54.8;;
65079;Laerm;52655;52.218;5.964;2023-06-22T05:20:07;41.8;36.2;50.7;;
65079;Laerm;52655;52.218;5.964;2023-06-22T05:22:07;43.3;37.1;54.0;;
65079;Laerm;52655;52.218;5.964;2023-06-22T05:24:07;44.5;37.3;58.4;;
65079;Laerm;52655;52.218;5.964;2023-06-22T05:26:07;42.9;37.1;52.8;;
65079;Laerm;52655;52.218;5.964;2023-06-22T05:28:07;43.4;37.3;53.5;;
65079;Laerm;52655;52.218;5.964;2023-06-22T05:30:07;44.4;37.7;56.9;;
65079;Laerm;52655;52.218;5.964;2023-06-22T05:32:07;43.7;37.8;52.4;;
65079;Laerm;52655;52.218;5.964;2023-06-22T05:34:07;42.0;36.7;51.9;;
65079;Laerm;52655;52.218;5.964;2023-06-22T05:36:07;42.3;36.3;59.0;;
65079;Laerm;52655;52.218;5.964;2023-06-22T05:38:07;46.4;38.0;57.4;;
65079;Laerm;52655;52.218;5.964;2023-06-22T05:40:07;46.4;38.4;55.1;;
65079;Laerm;52655;52.218;5.964;2023-06-22T05:42:07;46.8;37.4;60.9;;
65079;Laerm;52655;52.218;5.964;2023-06-22T05:44:07;45.6;37.6;60.6;;
65079;Laerm;52655;52.218;5.964;2023-06-22T05:46:07;47.7;38.4;65.9;;
65079;Laerm;52655;52.218;5.964;2023-06-22T05:48:07;49.4;37.3;59.0;;
65079;Laerm;52655;52.218;5.964;2023-06-22T05:50:08;45.0;37.8;55.1;;
65079;Laerm;52655;52.218;5.964;2023-06-22T05:52:07;46.0;37.8;61.7;;
65079;Laerm;52655;52.218;5.964;2023-06-22T05:54:08;44.0;37.8;62.3;;
65079;Laerm;52655;52.218;5.964;2023-06-22T05:56:08;44.5;38.2;59.1;;
65079;Laerm;52655;52.218;5.964;2023-06-22T05:58:08;43.7;37.8;54.1;;
65079;Laerm;52655;52.218;5.964;2023-06-22T06:00:08;44.0;38.0;55.3;;
65079;Laerm;52655;52.218;5.964;2023-06-22T06:02:08;45.1;38.5;56.3;;
65079;Laerm;52655;52.218;5.964;2023-06-22T06:04:08;47.4;40.9;63.2;;
65079;Laerm;52655;52.218;5.964;2023-06-22T06:06:08;46.0;41.8;52.4;;
65079;Laerm;52655;52.218;5.964;2023-06-22T06:08:08;51.8;43.8;65.0;;
65079;Laerm;52655;52.218;5.964;2023-06-22T06:10:08;57.2;45.3;66.2;;
65079;Laerm;52655;52.218;5.964;2023-06-22T06:12:08;55.1;48.8;60.7;;
65079;Laerm;52655;52.218;5.964;2023-06-22T06:14:08;54.9;48.0;66.7;;
65079;Laerm;52655;52.218;5.964;2023-06-22T06:16:08;50.6;42.4;71.5;;
65079;Laerm;52655;52.218;5.964;2023-06-22T06:18:08;46.6;40.1;58.5;;
65079;Laerm;52655;52.218;5.964;2023-06-22T06:20:08;47.2;40.8;56.3;;
65079;Laerm;52655;52.218;5.964;2023-06-22T06:22:08;50.5;40.8;57.6;;
65079;Laerm;52655;52.218;5.964;2023-06-22T06:24:08;48.5;40.5;54.9;;
65079;Laerm;52655;52.218;5.964;2023-06-22T06:26:08;57.9;40.4;64.9;;
65079;Laerm;52655;52.218;5.964;2023-06-22T06:28:09;52.0;39.6;62.1;;
65079;Laerm;52655;52.218;5.964;2023-06-22T06:30:08;43.2;37.3;55.7;;
65079;Laerm;52655;52.218;5.964;2023-06-22T06:32:09;44.8;38.3;53.8;;
65079;Laerm;52655;52.218;5.964;2023-06-22T06:34:09;44.3;38.4;53.3;;
65079;Laerm;52655;52.218;5.964;2023-06-22T06:36:09;44.7;38.4;52.3;;
65079;Laerm;52655;52.218;5.964;2023-06-22T06:38:09;46.4;41.6;52.9;;
65079;Laerm;52655;52.218;5.964;2023-06-22T06:40:09;44.4;39.8;55.1;;
65079;Laerm;52655;52.218;5.964;2023-06-22T06:42:09;44.2;38.8;56.8;;
65079;Laerm;52655;52.218;5.964;2023-06-22T06:46:09;49.5;43.3;57.6;;
65079;Laerm;52655;52.218;5.964;2023-06-22T06:48:09;44.9;39.3;56.2;;
65079;Laerm;52655;52.218;5.964;2023-06-22T06:50:09;44.3;38.3;54.5;;
65079;Laerm;52655;52.218;5.964;2023-06-22T06:52:09;45.0;37.6;54.8;;
65079;Laerm;52655;52.218;5.964;2023-06-22T06:54:09;41.5;36.8;53.1;;
65079;Laerm;52655;52.218;5.964;2023-06-22T06:56:09;43.5;37.0;58.8;;
65079;Laerm;52655;52.218;5.964;2023-06-22T06:58:09;44.8;37.3;60.0;;
65079;Laerm;52655;52.218;5.964;2023-06-22T07:00:10;45.0;38.0;55.7;;
65079;Laerm;52655;52.218;5.964;2023-06-22T07:02:09;46.9;41.6;60.8;;
65079;Laerm;52655;52.218;5.964;2023-06-22T07:04:09;48.4;42.4;63.9;;
65079;Laerm;52655;52.218;5.964;2023-06-22T07:06:09;45.1;38.5;57.9;;
65079;Laerm;52655;52.218;5.964;2023-06-22T07:08:10;46.7;37.1;62.7;;
65079;Laerm;52655;52.218;5.964;2023-06-22T07:10:10;44.5;38.0;54.8;;
65079;Laerm;52655;52.218;5.964;2023-06-22T07:12:10;44.6;39.0;53.6;;
65079;Laerm;52655;52.218;5.964;2023-06-22T07:14:10;44.2;38.2;57.1;;
65079;Laerm;52655;52.218;5.964;2023-06-22T07:16:54;43.6;35.4;57.1;;
65079;Laerm;52655;52.218;5.964;2023-06-22T07:20:12;42.9;36.4;55.2;;
65079;Laerm;52655;52.218;5.964;2023-06-22T07:22:10;44.5;38.3;57.7;;
65079;Laerm;52655;52.218;5.964;2023-06-22T07:24:10;41.4;36.5;52.0;;
65079;Laerm;52655;52.218;5.964;2023-06-22T07:26:10;43.5;38.0;56.9;;
65079;Laerm;52655;52.218;5.964;2023-06-22T07:28:10;41.9;36.1;48.4;;
65079;Laerm;52655;52.218;5.964;2023-06-22T07:30:10;42.2;36.5;51.0;;
65079;Laerm;52655;52.218;5.964;2023-06-22T07:32:10;44.2;36.8;59.3;;
65079;Laerm;52655;52.218;5.964;2023-06-22T07:34:10;42.3;36.0;54.5;;
65079;Laerm;52655;52.218;5.964;2023-06-22T07:36:10;48.4;37.8;62.3;;
65079;Laerm;52655;52.218;5.964;2023-06-22T07:38:11;44.4;36.6;59.7;;
65079;Laerm;52655;52.218;5.964;2023-06-22T07:40:11;44.2;37.0;58.8;;
65079;Laerm;52655;52.218;5.964;2023-06-22T07:46:11;46.2;36.4;62.2;;
65079;Laerm;52655;52.218;5.964;2023-06-22T07:48:55;44.5;35.4;61.0;;
65079;Laerm;52655;52.218;5.964;2023-06-22T07:52:13;43.5;34.9;61.0;;
65079;Laerm;52655;52.218;5.964;2023-06-22T07:55:30;46.9;35.2;65.0;;
65079;Laerm;52655;52.218;5.964;2023-06-22T07:58:48;43.3;35.6;55.7;;
65079;Laerm;52655;52.218;5.964;2023-06-22T08:02:11;45.5;36.5;59.1;;
65079;Laerm;52655;52.218;5.964;2023-06-22T08:05:29;45.5;38.3;54.8;;
65079;Laerm;52655;52.218;5.964;2023-06-22T08:08:46;42.2;36.9;56.2;;
65079;Laerm;52655;52.218;5.964;2023-06-22T08:12:11;44.9;35.8;64.7;;
65079;Laerm;52655;52.218;5.964;2023-06-22T08:15:29;43.3;36.6;57.7;;
65079;Laerm;52655;52.218;5.964;2023-06-22T08:18:14;43.9;36.8;57.8;;
65079;Laerm;52655;52.218;5.964;2023-06-22T08:20:12;45.4;36.9;60.0;;
65079;Laerm;52655;52.218;5.964;2023-06-22T08:22:12;44.9;38.6;60.0;;
65079;Laerm;52655;52.218;5.964;2023-06-22T08:24:12;44.4;38.0;53.1;;
65079;Laerm;52655;52.218;5.964;2023-06-22T08:26:12;43.1;36.7;58.8;;
65079;Laerm;52655;52.218;5.964;2023-06-22T08:28:12;45.5;37.1;52.4;;
65079;Laerm;52655;52.218;5.964;2023-06-22T08:30:12;44.9;38.4;56.2;;
65079;Laerm;52655;52.218;5.964;2023-06-22T08:32:12;48.0;37.6;61.3;;
65079;Laerm;52655;52.218;5.964;2023-06-22T08:34:12;45.0;38.8;55.9;;
65079;Laerm;52655;52.218;5.964;2023-06-22T08:36:12;47.8;40.2;58.3;;
65079;Laerm;52655;52.218;5.964;2023-06-22T08:38:12;43.6;38.2;53.2;;
65079;Laerm;52655;52.218;5.964;2023-06-22T08:40:12;43.0;37.5;53.9;;
65079;Laerm;52655;52.218;5.964;2023-06-22T08:42:12;45.3;37.3;59.0;;
65079;Laerm;52655;52.218;5.964;2023-06-22T08:44:12;44.2;36.3;57.1;;
65079;Laerm;52655;52.218;5.964;2023-06-22T08:46:12;46.3;38.4;57.9;;
65079;Laerm;52655;52.218;5.964;2023-06-22T08:48:12;44.7;39.1;53.7;;
65079;Laerm;52655;52.218;5.964;2023-06-22T08:50:13;46.1;39.5;64.0;;
65079;Laerm;52655;52.218;5.964;2023-06-22T08:52:13;46.1;40.0;60.8;;
65079;Laerm;52655;52.218;5.964;2023-06-22T08:54:13;46.5;39.9;57.3;;
65079;Laerm;52655;52.218;5.964;2023-06-22T08:56:13;45.1;37.7;54.3;;
65079;Laerm;52655;52.218;5.964;2023-06-22T08:58:13;45.6;36.8;62.3;;
65079;Laerm;52655;52.218;5.964;2023-06-22T09:00:13;46.9;38.9;56.4;;
65079;Laerm;52655;52.218;5.964;2023-06-22T09:02:13;44.9;38.9;55.7;;
65079;Laerm;52655;52.218;5.964;2023-06-22T09:04:13;42.5;36.8;52.1;;
65079;Laerm;52655;52.218;5.964;2023-06-22T09:06:13;42.4;36.8;51.0;;
65079;Laerm;52655;52.218;5.964;2023-06-22T09:08:13;44.0;37.1;58.3;;
65079;Laerm;52655;52.218;5.964;2023-06-22T09:10:13;43.8;37.5;59.6;;
65079;Laerm;52655;52.218;5.964;2023-06-22T09:12:13;44.0;38.8;51.5;;
65079;Laerm;52655;52.218;5.964;2023-06-22T09:14:13;43.2;37.8;53.1;;
65079;Laerm;52655;52.218;5.964;2023-06-22T09:16:13;42.1;36.8;50.0;;
65079;Laerm;52655;52.218;5.964;2023-06-22T09:18:13;41.6;37.1;48.7;;
65079;Laerm;52655;52.218;5.964;2023-06-22T09:20:13;43.8;38.0;53.3;;
65079;Laerm;52655;52.218;5.964;2023-06-22T09:22:13;43.3;37.9;50.6;;
65079;Laerm;52655;52.218;5.964;2023-06-22T09:24:13;44.5;38.4;51.3;;
65079;Laerm;52655;52.218;5.964;2023-06-22T09:26:14;41.9;37.0;50.4;;
65079;Laerm;52655;52.218;5.964;2023-06-22T09:28:14;44.9;38.5;55.3;;
65079;Laerm;52655;52.218;5.964;2023-06-22T09:30:14;40.8;35.6;46.8;;
65079;Laerm;52655;52.218;5.964;2023-06-22T09:34:14;44.7;35.8;55.8;;
65079;Laerm;52655;52.218;5.964;2023-06-22T09:36:14;41.8;38.0;60.9;;
65079;Laerm;52655;52.218;5.964;2023-06-22T09:38:14;45.6;37.4;59.5;;
65079;Laerm;52655;52.218;5.964;2023-06-22T09:40:14;43.0;38.2;58.4;;
65079;Laerm;52655;52.218;5.964;2023-06-22T09:42:14;47.8;37.3;65.9;;
65079;Laerm;52655;52.218;5.964;2023-06-22T09:44:14;44.5;37.6;59.5;;
65079;Laerm;52655;52.218;5.964;2023-06-22T09:46:14;50.2;39.3;66.7;;
65079;Laerm;52655;52.218;5.964;2023-06-22T09:48:14;45.7;38.9;60.7;;
65079;Laerm;52655;52.218;5.964;2023-06-22T09:50:14;44.7;39.4;52.7;;
65079;Laerm;52655;52.218;5.964;2023-06-22T09:52:15;45.4;39.3;60.7;;
65079;Laerm;52655;52.218;5.964;2023-06-22T09:54:14;48.2;40.0;69.0;;
65079;Laerm;52655;52.218;5.964;2023-06-22T09:56:14;48.2;38.9;63.5;;
65079;Laerm;52655;52.218;5.964;2023-06-22T09:58:14;44.7;37.1;59.3;;
65079;Laerm;52655;52.218;5.964;2023-06-22T10:00:15;45.8;38.2;62.9;;
65079;Laerm;52655;52.218;5.964;2023-06-22T10:02:14;45.5;39.0;60.3;;
65079;Laerm;52655;52.218;5.964;2023-06-22T10:04:15;45.1;39.3;55.5;;
65079;Laerm;52655;52.218;5.964;2023-06-22T10:06:15;45.0;38.3;58.4;;
65079;Laerm;52655;52.218;5.964;2023-06-22T10:08:15;45.2;39.7;56.0;;
65079;Laerm;52655;52.218;5.964;2023-06-22T10:10:15;46.9;40.8;62.5;;
65079;Laerm;52655;52.218;5.964;2023-06-22T10:12:15;44.7;39.5;53.4;;
65079;Laerm;52655;52.218;5.964;2023-06-22T10:14:15;45.7;39.0;56.0;;
65079;Laerm;52655;52.218;5.964;2023-06-22T10:16:15;44.4;38.4;57.0;;
65079;Laerm;52655;52.218;5.964;2023-06-22T10:18:15;43.6;38.9;57.8;;
65079;Laerm;52655;52.218;5.964;2023-06-22T10:20:15;45.4;39.0;55.3;;
65079;Laerm;52655;52.218;5.964;2023-06-22T10:22:15;46.8;39.8;57.4;;
65079;Laerm;52655;52.218;5.964;2023-06-22T10:24:15;43.5;37.9;52.9;;
65079;Laerm;52655;52.218;5.964;2023-06-22T10:26:15;44.5;37.1;57.8;;
65079;Laerm;52655;52.218;5.964;2023-06-22T10:28:15;45.0;38.7;54.9;;
65079;Laerm;52655;52.218;5.964;2023-06-22T10:30:15;44.1;37.8;56.0;;
65079;Laerm;52655;52.218;5.964;2023-06-22T10:32:15;44.9;37.6;59.3;;
65079;Laerm;52655;52.218;5.964;2023-06-22T10:34:15;45.7;38.0;56.9;;
65079;Laerm;52655;52.218;5.964;2023-06-22T10:36:15;49.5;38.4;67.9;;
65079;Laerm;52655;52.218;5.964;2023-06-22T10:38:15;44.3;37.9;51.3;;
65079;Laerm;52655;52.218;5.964;2023-06-22T10:40:16;44.3;37.9;61.0;;
65079;Laerm;52655;52.218;5.964;2023-06-22T10:42:16;47.9;38.4;62.0;;
65079;Laerm;52655;52.218;5.964;2023-06-22T10:44:16;47.4;38.9;62.0;;
65079;Laerm;52655;52.218;5.964;2023-06-22T10:46:16;47.2;37.6;62.1;;
65079;Laerm;52655;52.218;5.964;2023-06-22T10:48:16;47.0;38.1;61.5;;
65079;Laerm;52655;52.218;5.964;2023-06-22T10:52:16;50.8;39.5;65.6;;
65079;Laerm;52655;52.218;5.964;2023-06-22T10:54:16;44.8;38.0;57.8;;
65079;Laerm;52655;52.218;5.964;2023-06-22T10:56:16;49.6;38.9;63.6;;
65079;Laerm;52655;52.218;5.964;2023-06-22T10:58:17;47.8;38.4;66.2;;
65079;Laerm;52655;52.218;5.964;2023-06-22T11:00:16;46.0;37.7;59.3;;
65079;Laerm;52655;52.218;5.964;2023-06-22T11:02:16;46.0;37.3;59.0;;
65079;Laerm;52655;52.218;5.964;2023-06-22T11:04:16;45.4;38.1;56.7;;
65079;Laerm;52655;52.218;5.964;2023-06-22T11:08:16;45.6;37.8;57.2;;
65079;Laerm;52655;52.218;5.964;2023-06-22T11:10:16;46.0;38.6;58.9;;
65079;Laerm;52655;52.218;5.964;2023-06-22T11:12:16;43.8;38.0;56.8;;
65079;Laerm;52655;52.218;5.964;2023-06-22T11:14:16;46.0;38.1;56.0;;
65079;Laerm;52655;52.218;5.964;2023-06-22T11:16:16;48.8;37.8;60.7;;
65079;Laerm;52655;52.218;5.964;2023-06-22T11:18:17;46.1;37.3;59.0;;
65079;Laerm;52655;52.218;5.964;2023-06-22T11:20:17;46.2;39.5;58.6;;
65079;Laerm;52655;52.218;5.964;2023-06-22T11:22:17;48.3;38.7;61.0;;
65079;Laerm;52655;52.218;5.964;2023-06-22T11:24:17;45.7;38.2;62.0;;
65079;Laerm;52655;52.218;5.964;2023-06-22T11:26:17;47.4;39.2;59.0;;
65079;Laerm;52655;52.218;5.964;2023-06-22T11:28:17;46.0;38.7;62.0;;
65079;Laerm;52655;52.218;5.964;2023-06-22T11:30:17;47.1;38.8;60.0;;
65079;Laerm;52655;52.218;5.964;2023-06-22T11:32:17;47.7;39.0;60.4;;
65079;Laerm;52655;52.218;5.964;2023-06-22T11:34:17;48.0;38.4;60.7;;
65079;Laerm;52655;52.218;5.964;2023-06-22T11:36:18;48.2;38.2;57.4;;
65079;Laerm;52655;52.218;5.964;2023-06-22T11:38:17;45.9;38.6;57.4;;
65079;Laerm;52655;52.218;5.964;2023-06-22T11:40:17;47.6;38.7;62.1;;
65079;Laerm;52655;52.218;5.964;2023-06-22T11:42:17;46.0;38.2;58.7;;
65079;Laerm;52655;52.218;5.964;2023-06-22T11:44:17;42.8;38.7;51.4;;
65079;Laerm;52655;52.218;5.964;2023-06-22T11:46:17;48.2;38.2;67.1;;
65079;Laerm;52655;52.218;5.964;2023-06-22T11:48:17;45.7;38.5;54.8;;
65079;Laerm;52655;52.218;5.964;2023-06-22T11:52:18;46.2;40.5;50.6;;
65079;Laerm;52655;52.218;5.964;2023-06-22T11:54:18;46.5;42.5;53.3;;
65079;Laerm;52655;52.218;5.964;2023-06-22T11:56:18;46.1;41.9;51.7;;
65079;Laerm;52655;52.218;5.964;2023-06-22T11:58:18;47.6;41.0;57.8;;
65079;Laerm;52655;52.218;5.964;2023-06-22T12:00:18;47.5;41.6;56.3;;
65079;Laerm;52655;52.218;5.964;2023-06-22T12:02:18;50.5;41.7;66.0;;
65079;Laerm;52655;52.218;5.964;2023-06-22T12:04:18;51.1;42.8;67.8;;
65079;Laerm;52655;52.218;5.964;2023-06-22T12:06:18;48.0;42.1;61.3;;
65079;Laerm;52655;52.218;5.964;2023-06-22T12:08:18;46.4;40.9;55.3;;
65079;Laerm;52655;52.218;5.964;2023-06-22T12:10:18;45.3;40.0;58.3;;
65079;Laerm;52655;52.218;5.964;2023-06-22T12:12:18;45.6;41.4;52.1;;
65079;Laerm;52655;52.218;5.964;2023-06-22T12:14:18;45.2;40.2;52.5;;